Time;durP1;ratioP1;P1;durP2;ratioP2;P2;SDS_P1;SDS_P2;PMS_P1;PMS_P2;Temp;Humidity;BMP_temperature;BMP_pressure;BME280_temperature;BME280_humidity;BME280_pressure;Samples;Min_cycle;Max_cycle;Signal;HPM_P1;HPM_P2
2022/10/30 00:03:58;;;;;;;26.23;14.43;;;;;;;;;;8367646;28;20110;-95
2022/10/30 00:08:00;;;;;;;25.10;13.15;;;;;;;;;;8369402;28;20075;-96
2022/10/30 00:12:04;;;;;;;31.95;14.23;;;;;;;;;;8369504;28;20545;-86
2022/10/30 00:16:09;;;;;;;25.65;15.52;;;;;;;;;;8367370;28;20080;-89
2022/10/30 00:20:11;;;;;;;29.40;15.45;;;;;;;;;;8369565;28;20053;-95
2022/10/30 00:24:14;;;;;;;25.80;14.57;;;;;;;;;;8357224;28;20482;-86
2022/10/30 00:28:18;;;;;;;22.67;14.00;;;;;;;;;;8364988;28;20049;-94
2022/10/30 00:32:20;;;;;;;27.05;14.07;;;;;;;;;;8367669;28;20071;-88
2022/10/30 00:36:23;;;;;;;26.80;14.85;;;;;;;;;;8371628;28;20075;-86
2022/10/30 00:40:25;;;;;;;27.70;14.73;;;;;;;;;;8370722;28;20051;-92
2022/10/30 00:44:36;;;;;;;37.53;14.98;;;;;;;;;;8368501;28;20037;-88
2022/10/30 00:48:39;;;;;;;25.67;13.73;;;;;;;;;;8366525;28;20047;-91
2022/10/30 00:52:48;;;;;;;26.15;14.60;;;;;;;;;;8370637;28;20048;-89
2022/10/30 00:56:52;;;;;;;30.95;15.32;;;;;;;;;;8373718;28;20064;-88
2022/10/30 01:01:00;;;;;;;29.60;16.48;;;;;;;;;;8372907;28;20045;-94
2022/10/30 01:05:04;;;;;;;27.45;15.15;;;;;;;;;;8373530;28;20114;-87
2022/10/30 01:09:07;;;;;;;29.10;15.93;;;;;;;;;;8365951;28;20104;-93
2022/10/30 01:13:09;;;;;;;30.45;15.50;;;;;;;;;;8356184;28;20056;-89
2022/10/30 01:17:33;;;;;;;26.83;15.05;;;;;;;;;;8369300;28;20052;-89
2022/10/30 01:21:48;;;;;;;24.08;14.23;;;;;;;;;;8364032;28;20429;-89
2022/10/30 01:26:05;;;;;;;24.33;14.63;;;;;;;;;;8364351;28;20127;-87
2022/10/30 01:30:18;;;;;;;26.50;14.57;;;;;;;;;;8364178;28;20053;-95
2022/10/30 01:34:30;;;;;;;27.75;15.38;;;;;;;;;;8362883;28;20037;-86
2022/10/30 01:38:38;;;;;;;30.63;15.13;;;;;;;;;;8363994;28;20041;-93
2022/10/30 01:42:47;;;;;;;27.15;15.10;;;;;;;;;;8364513;28;20053;-94
2022/10/30 01:47:04;;;;;;;25.27;14.55;;;;;;;;;;8352882;28;20048;-96
2022/10/30 01:51:18;;;;;;;31.95;15.63;;;;;;;;;;8371147;28;20049;-96
2022/10/30 01:55:35;;;;;;;23.77;14.32;;;;;;;;;;8356294;28;20484;-88
2022/10/30 01:59:42;;;;;;;27.63;14.93;;;;;;;;;;8359609;28;20047;-88
2022/10/30 02:03:46;;;;;;;25.70;13.85;;;;;;;;;;8365343;28;20700;-89
2022/10/30 02:07:50;;;;;;;25.20;13.88;;;;;;;;;;8360869;28;20049;-88
2022/10/30 02:11:54;;;;;;;24.27;13.73;;;;;;;;;;8357951;28;20041;-87
2022/10/30 02:15:58;;;;;;;24.92;13.80;;;;;;;;;;8355354;28;20098;-86
2022/10/30 02:20:01;;;;;;;23.50;13.93;;;;;;;;;;8375185;28;20056;-88
2022/10/30 02:24:09;;;;;;;27.15;14.13;;;;;;;;;;8374160;28;20049;-91
2022/10/30 02:28:12;;;;;;;25.92;14.13;;;;;;;;;;8364740;28;20127;-93
2022/10/30 02:32:15;;;;;;;29.00;14.32;;;;;;;;;;8371827;28;20507;-86
2022/10/30 02:36:20;;;;;;;26.25;15.43;;;;;;;;;;8375582;28;20053;-94
2022/10/30 02:40:25;;;;;;;30.58;15.15;;;;;;;;;;8384840;28;20087;-87
2022/10/30 02:44:27;;;;;;;25.40;14.65;;;;;;;;;;8373290;28;20045;-87
2022/10/30 02:48:31;;;;;;;24.25;14.23;;;;;;;;;;8369432;28;20111;-87
2022/10/30 02:52:34;;;;;;;25.35;15.23;;;;;;;;;;8366044;28;20124;-92
2022/10/30 02:56:40;;;;;;;30.67;15.23;;;;;;;;;;8370077;28;20120;-94
2022/10/30 03:00:43;;;;;;;28.45;15.23;;;;;;;;;;8369659;28;20037;-87
2022/10/30 03:04:45;;;;;;;27.27;14.65;;;;;;;;;;8371138;28;20067;-86
2022/10/30 03:08:49;;;;;;;25.15;14.65;;;;;;;;;;8369807;28;20045;-85
2022/10/30 03:12:53;;;;;;;27.88;15.90;;;;;;;;;;8372697;28;20040;-86
2022/10/30 03:16:58;;;;;;;27.38;17.08;;;;;;;;;;8372990;28;20057;-89
2022/10/30 03:21:03;;;;;;;27.58;15.77;;;;;;;;;;8362412;28;20148;-87
2022/10/30 03:25:06;;;;;;;27.30;14.68;;;;;;;;;;8372464;28;20052;-86
2022/10/30 03:29:10;;;;;;;25.48;14.10;;;;;;;;;;8372401;28;20143;-87
2022/10/30 03:33:13;;;;;;;26.60;14.18;;;;;;;;;;8364561;28;20044;-93
2022/10/30 03:37:17;;;;;;;28.90;14.90;;;;;;;;;;8366607;28;20049;-88
2022/10/30 03:41:19;;;;;;;23.80;14.43;;;;;;;;;;8367349;28;20458;-93
2022/10/30 03:45:23;;;;;;;23.90;14.40;;;;;;;;;;8365852;28;20132;-91
2022/10/30 03:49:25;;;;;;;27.27;14.45;;;;;;;;;;8366252;28;20049;-92
2022/10/30 03:53:29;;;;;;;24.67;14.57;;;;;;;;;;8358541;28;20076;-85
2022/10/30 03:57:31;;;;;;;28.13;15.73;;;;;;;;;;8345135;28;20515;-89
2022/10/30 04:01:35;;;;;;;30.92;14.80;;;;;;;;;;8339531;28;20489;-93
2022/10/30 04:05:38;;;;;;;25.15;14.40;;;;;;;;;;8349879;28;20106;-91
2022/10/30 04:09:43;;;;;;;28.40;15.10;;;;;;;;;;8363063;28;20055;-86
2022/10/30 04:13:45;;;;;;;27.88;16.58;;;;;;;;;;8365869;28;20519;-90
2022/10/30 04:17:50;;;;;;;26.67;16.40;;;;;;;;;;8355944;28;20041;-87
2022/10/30 04:21:53;;;;;;;29.02;15.25;;;;;;;;;;8369673;28;20044;-95
2022/10/30 04:25:55;;;;;;;28.73;15.65;;;;;;;;;;8368864;28;20408;-87
2022/10/30 04:29:58;;;;;;;31.20;15.60;;;;;;;;;;8358735;28;20095;-93
2022/10/30 04:34:02;;;;;;;25.77;16.10;;;;;;;;;;8365907;28;20132;-92
2022/10/30 04:38:06;;;;;;;25.95;14.00;;;;;;;;;;8369204;28;20511;-94
2022/10/30 04:42:09;;;;;;;30.50;14.27;;;;;;;;;;8345998;28;20507;-93
2022/10/30 04:46:11;;;;;;;27.63;14.90;;;;;;;;;;8364184;28;20489;-94
2022/10/30 04:50:16;;;;;;;29.10;14.80;;;;;;;;;;8355807;28;20812;-92
2022/10/30 04:54:19;;;;;;;30.95;17.30;;;;;;;;;;8367551;28;20489;-90
2022/10/30 04:58:22;;;;;;;32.33;18.15;;;;;;;;;;8368891;28;20456;-87
2022/10/30 05:02:25;;;;;;;45.42;22.52;;;;;;;;;;8371207;28;20579;-87
2022/10/30 05:06:30;;;;;;;37.30;18.27;;;;;;;;;;8365836;28;20127;-92
2022/10/30 05:10:33;;;;;;;35.13;16.85;;;;;;;;;;8367475;28;20052;-88
2022/10/30 05:14:38;;;;;;;33.80;17.00;;;;;;;;;;8367088;28;20072;-87
2022/10/30 05:18:41;;;;;;;38.53;19.27;;;;;;;;;;8362699;28;20048;-86
2022/10/30 05:22:45;;;;;;;32.50;18.58;;;;;;;;;;8366957;28;20045;-89
2022/10/30 05:26:47;;;;;;;34.63;19.88;;;;;;;;;;8367163;28;20442;-91
2022/10/30 05:30:53;;;;;;;43.30;23.92;;;;;;;;;;8366400;28;20037;-88
2022/10/30 05:34:55;;;;;;;43.42;22.38;;;;;;;;;;8366640;28;20099;-92
2022/10/30 05:39:01;;;;;;;42.13;20.65;;;;;;;;;;8366283;28;20127;-87
2022/10/30 05:43:05;;;;;;;35.17;18.92;;;;;;;;;;8366618;28;20554;-87
2022/10/30 05:47:07;;;;;;;39.08;20.80;;;;;;;;;;8346951;28;20443;-95
2022/10/30 05:51:10;;;;;;;37.65;20.70;;;;;;;;;;8369791;28;20045;-88
2022/10/30 05:55:14;;;;;;;36.53;20.38;;;;;;;;;;8369592;28;20117;-91
2022/10/30 05:59:16;;;;;;;39.67;20.30;;;;;;;;;;8348006;28;20542;-91
2022/10/30 06:03:19;;;;;;;50.60;22.00;;;;;;;;;;8365486;28;20052;-91
2022/10/30 06:07:21;;;;;;;45.28;23.80;;;;;;;;;;8366847;28;20105;-91
2022/10/30 06:11:25;;;;;;;42.83;22.88;;;;;;;;;;8367524;28;20045;-87
2022/10/30 06:15:30;;;;;;;40.47;22.63;;;;;;;;;;8367363;28;20045;-94
2022/10/30 06:19:32;;;;;;;137.02;66.85;;;;;;;;;;8364127;28;20056;-92
2022/10/30 06:23:35;;;;;;;70.88;36.00;;;;;;;;;;8364683;28;20049;-92
2022/10/30 06:27:40;;;;;;;43.47;25.05;;;;;;;;;;8364922;28;20060;-91
2022/10/30 06:31:43;;;;;;;57.08;29.60;;;;;;;;;;8365304;28;20473;-94
2022/10/30 06:35:48;;;;;;;54.08;29.67;;;;;;;;;;8358295;28;20143;-86
2022/10/30 06:39:53;;;;;;;50.95;23.13;;;;;;;;;;8336179;28;20048;-87
2022/10/30 06:43:58;;;;;;;61.97;32.83;;;;;;;;;;8363815;28;20053;-88
2022/10/30 06:48:01;;;;;;;68.43;33.25;;;;;;;;;;8349143;28;20382;-91
2022/10/30 06:52:04;;;;;;;42.17;22.23;;;;;;;;;;8351913;28;20053;-94
2022/10/30 06:56:08;;;;;;;53.50;26.90;;;;;;;;;;8366212;28;20049;-92
2022/10/30 07:00:14;;;;;;;40.88;22.75;;;;;;;;;;8364780;28;20048;-87
2022/10/30 07:04:18;;;;;;;49.40;25.17;;;;;;;;;;8364359;28;20071;-93
2022/10/30 07:08:20;;;;;;;56.17;32.05;;;;;;;;;;8363233;28;20052;-88
2022/10/30 07:12:23;;;;;;;87.20;48.00;;;;;;;;;;8358310;28;20040;-92
2022/10/30 07:16:29;;;;;;;41.05;24.90;;;;;;;;;;8361573;28;20047;-89
2022/10/30 07:20:33;;;;;;;38.15;21.35;;;;;;;;;;8363499;28;20045;-91
2022/10/30 07:24:35;;;;;;;46.08;24.20;;;;;;;;;;8363148;28;20060;-89
2022/10/30 07:28:38;;;;;;;54.72;34.42;;;;;;;;;;8359322;28;20415;-93
2022/10/30 07:32:44;;;;;;;45.35;29.98;;;;;;;;;;8365028;28;20450;-93
2022/10/30 07:36:46;;;;;;;50.85;33.72;;;;;;;;;;8373081;28;20052;-90
2022/10/30 07:40:52;;;;;;;46.95;32.17;;;;;;;;;;8359262;28;20130;-95
2022/10/30 07:44:58;;;;;;;35.38;19.60;;;;;;;;;;8366308;28;20052;-95
2022/10/30 07:49:06;;;;;;;39.80;25.67;;;;;;;;;;8378182;28;20049;-88
2022/10/30 07:53:13;;;;;;;41.75;26.80;;;;;;;;;;8384405;28;20053;-88
2022/10/30 07:57:17;;;;;;;31.27;18.05;;;;;;;;;;8382048;28;20053;-87
2022/10/30 08:01:20;;;;;;;36.65;21.38;;;;;;;;;;8380132;28;20404;-87
2022/10/30 08:05:43;;;;;;;34.10;18.27;;;;;;;;;;8391380;28;20040;-86
2022/10/30 08:09:49;;;;;;;97.70;51.90;;;;;;;;;;8383647;28;20045;-87
2022/10/30 08:13:54;;;;;;;40.17;22.98;;;;;;;;;;8382830;28;20396;-87
2022/10/30 08:18:25;;;;;;;40.90;20.88;;;;;;;;;;8381985;28;20056;-86
2022/10/30 08:22:53;;;;;;;40.30;23.98;;;;;;;;;;8365950;28;20063;-84
2022/10/30 08:26:55;;;;;;;28.77;18.67;;;;;;;;;;8364787;28;20631;-91
2022/10/30 08:30:58;;;;;;;35.30;20.20;;;;;;;;;;8355702;28;20053;-90
2022/10/30 08:35:02;;;;;;;33.78;22.05;;;;;;;;;;8360205;28;20485;-92
2022/10/30 08:39:06;;;;;;;30.48;18.08;;;;;;;;;;8359592;28;20049;-91
2022/10/30 08:43:08;;;;;;;26.02;16.90;;;;;;;;;;8361499;28;20045;-93
2022/10/30 08:47:11;;;;;;;31.70;18.75;;;;;;;;;;8352026;28;20539;-93
2022/10/30 08:51:13;;;;;;;32.10;18.35;;;;;;;;;;8361938;28;20056;-91
2022/10/30 08:55:18;;;;;;;33.05;16.60;;;;;;;;;;8345794;28;20049;-87
2022/10/30 08:59:20;;;;;;;30.50;18.02;;;;;;;;;;8358308;28;20099;-90
2022/10/30 09:03:23;;;;;;;29.63;20.83;;;;;;;;;;8353667;28;20053;-91
2022/10/30 09:07:25;;;;;;;34.67;18.55;;;;;;;;;;8346997;28;20119;-90
2022/10/30 09:11:29;;;;;;;29.70;17.10;;;;;;;;;;8342261;28;20562;-92
2022/10/30 09:15:31;;;;;;;29.70;17.05;;;;;;;;;;8343438;28;20045;-90
2022/10/30 09:19:34;;;;;;;26.90;16.08;;;;;;;;;;8356085;28;20098;-93
2022/10/30 09:23:41;;;;;;;29.85;18.05;;;;;;;;;;8363757;28;20045;-91
2022/10/30 09:27:47;;;;;;;28.05;16.48;;;;;;;;;;8365412;28;20036;-93
2022/10/30 09:31:58;;;;;;;25.55;15.48;;;;;;;;;;8364030;28;20041;-91
2022/10/30 09:36:03;;;;;;;35.88;21.85;;;;;;;;;;8366479;28;20123;-95
2022/10/30 09:40:12;;;;;;;40.50;26.42;;;;;;;;;;8362750;28;20118;-94
2022/10/30 09:44:30;;;;;;;26.05;14.73;;;;;;;;;;8362381;28;20122;-91
2022/10/30 09:48:47;;;;;;;21.10;14.27;;;;;;;;;;8347764;28;20138;-91
2022/10/30 09:53:06;;;;;;;97.22;66.05;;;;;;;;;;8363187;28;20052;-88
2022/10/30 09:57:18;;;;;;;32.42;21.45;;;;;;;;;;8362948;28;20135;-92
2022/10/30 10:01:34;;;;;;;24.70;14.27;;;;;;;;;;8362291;28;20045;-93
2022/10/30 10:05:48;;;;;;;38.17;22.40;;;;;;;;;;8350764;28;20090;-90
2022/10/30 10:09:58;;;;;;;23.77;13.05;;;;;;;;;;8352534;28;20045;-92
2022/10/30 10:14:15;;;;;;;25.02;13.77;;;;;;;;;;8362258;28;20036;-90
2022/10/30 10:18:28;;;;;;;21.13;14.00;;;;;;;;;;8359698;28;20057;-88
2022/10/30 10:22:37;;;;;;;23.17;13.52;;;;;;;;;;8364015;28;20497;-88
2022/10/30 10:26:47;;;;;;;19.02;11.73;;;;;;;;;;8355055;28;20489;-93
2022/10/30 10:30:59;;;;;;;19.87;11.90;;;;;;;;;;8357941;28;20448;-89
2022/10/30 10:35:23;;;;;;;25.60;12.25;;;;;;;;;;8357879;28;20122;-90
2022/10/30 10:39:41;;;;;;;19.73;12.40;;;;;;;;;;8352185;28;20044;-90
2022/10/30 10:43:58;;;;;;;19.50;12.07;;;;;;;;;;8354979;28;20049;-90
2022/10/30 10:48:25;;;;;;;20.77;12.27;;;;;;;;;;8356178;28;20049;-88
2022/10/30 10:52:38;;;;;;;25.08;12.95;;;;;;;;;;8352922;28;20057;-94
2022/10/30 10:56:45;;;;;;;26.65;12.85;;;;;;;;;;8358929;28;20488;-90
2022/10/30 11:00:48;;;;;;;21.05;12.05;;;;;;;;;;8359044;28;20049;-92
2022/10/30 11:04:54;;;;;;;23.85;14.23;;;;;;;;;;8359329;28;20102;-90
2022/10/30 11:09:15;;;;;;;17.85;12.05;;;;;;;;;;8352739;28;20102;-93
2022/10/30 11:13:20;;;;;;;22.58;11.90;;;;;;;;;;8355345;28;20041;-92
2022/10/30 11:17:27;;;;;;;24.00;11.65;;;;;;;;;;8358200;28;20053;-89
2022/10/30 11:21:33;;;;;;;21.75;11.43;;;;;;;;;;8350534;28;20084;-89
2022/10/30 11:25:37;;;;;;;22.00;11.85;;;;;;;;;;8346142;28;20041;-91
2022/10/30 11:29:49;;;;;;;22.25;11.60;;;;;;;;;;8356161;28;20051;-93
2022/10/30 11:33:53;;;;;;;21.08;12.52;;;;;;;;;;8355547;28;20127;-90
2022/10/30 11:38:15;;;;;;;21.17;12.45;;;;;;;;;;8357004;28;20045;-87
2022/10/30 11:42:32;;;;;;;20.30;12.75;;;;;;;;;;8358627;28;20052;-89
2022/10/30 11:46:54;;;;;;;21.50;11.00;;;;;;;;;;8348372;28;20155;-86
2022/10/30 11:51:01;;;;;;;22.08;11.52;;;;;;;;;;8356096;28;20485;-86
2022/10/30 11:55:17;;;;;;;23.23;11.90;;;;;;;;;;8347665;28;20053;-88
2022/10/30 11:59:45;;;;;;;18.90;11.15;;;;;;;;;;8354873;28;20061;-87
2022/10/30 12:03:49;;;;;;;19.65;11.38;;;;;;;;;;8347038;28;20936;-92
2022/10/30 12:08:17;;;;;;;21.67;9.68;;;;;;;;;;8358264;28;20461;-89
2022/10/30 12:12:30;;;;;;;17.48;10.90;;;;;;;;;;8346798;28;20043;-90
2022/10/30 12:21:21;;;;;;;25.23;11.95;;;;;;;;;;8363412;28;20159;-87
2022/10/30 12:25:33;;;;;;;22.52;11.13;;;;;;;;;;8362770;28;20506;-88
2022/10/30 12:29:51;;;;;;;18.92;11.15;;;;;;;;;;8358001;28;20489;-90
2022/10/30 12:34:19;;;;;;;19.38;11.63;;;;;;;;;;8363763;28;20100;-86
2022/10/30 12:38:33;;;;;;;23.80;11.35;;;;;;;;;;8350320;28;20052;-88
2022/10/30 12:42:49;;;;;;;19.70;11.57;;;;;;;;;;8363827;28;20574;-93
2022/10/30 12:47:10;;;;;;;17.67;10.93;;;;;;;;;;8350902;28;20103;-86
2022/10/30 12:51:30;;;;;;;20.95;11.32;;;;;;;;;;8359153;28;20122;-88
2022/10/30 12:55:46;;;;;;;18.98;11.80;;;;;;;;;;8363152;28;20045;-88
2022/10/30 13:00:13;;;;;;;20.48;11.73;;;;;;;;;;8362306;28;20044;-91
2022/10/30 13:04:38;;;;;;;19.75;10.68;;;;;;;;;;8352178;28;20495;-86
2022/10/30 13:09:19;;;;;;;24.95;10.98;;;;;;;;;;8362352;28;20049;-86
2022/10/30 13:13:34;;;;;;;19.23;11.85;;;;;;;;;;8360569;28;20037;-86
2022/10/30 13:17:39;;;;;;;18.55;10.63;;;;;;;;;;8344575;28;20052;-86
2022/10/30 13:22:06;;;;;;;20.33;10.52;;;;;;;;;;8355822;28;20052;-89
2022/10/30 13:26:25;;;;;;;21.77;11.68;;;;;;;;;;8359648;28;20052;-93
2022/10/30 13:30:34;;;;;;;25.40;11.77;;;;;;;;;;8359928;28;20413;-92
2022/10/30 13:34:46;;;;;;;19.90;11.95;;;;;;;;;;8360198;28;20045;-88
2022/10/30 13:38:54;;;;;;;;;;;;;;;;;;8351674;28;20156;-92
2022/10/30 13:43:11;;;;;;;19.90;10.85;;;;;;;;;;8360554;28;19982;-92
2022/10/30 13:47:36;;;;;;;21.38;11.77;;;;;;;;;;8353968;28;20091;-87
2022/10/30 13:51:45;;;;;;;19.95;11.20;;;;;;;;;;8349904;28;20037;-93
2022/10/30 13:55:50;;;;;;;22.50;12.18;;;;;;;;;;8360839;28;20041;-90
2022/10/30 14:00:07;;;;;;;18.23;11.57;;;;;;;;;;8356928;28;20057;-92
2022/10/30 14:04:30;;;;;;;18.38;10.90;;;;;;;;;;8350547;28;20118;-92
2022/10/30 14:08:52;;;;;;;20.15;11.40;;;;;;;;;;8346551;28;20475;-89
2022/10/30 14:13:32;;;;;;;24.50;11.43;;;;;;;;;;8352004;28;20136;-90
2022/10/30 14:18:20;;;;;;;18.58;10.90;;;;;;;;;;8356844;28;20045;-85
2022/10/30 14:23:06;;;;;;;19.23;11.20;;;;;;;;;;8358476;28;20246;-91
2022/10/30 14:27:15;;;;;;;22.88;11.00;;;;;;;;;;8354697;28;20041;-88
2022/10/30 14:31:36;;;;;;;22.33;12.23;;;;;;;;;;8352581;28;20048;-89
2022/10/30 14:35:42;;;;;;;;;;;;;;;;;;8358064;28;20147;-91
2022/10/30 14:39:47;;;;;;;18.90;12.27;;;;;;;;;;8359569;28;19932;-84
2022/10/30 14:44:24;;;;;;;27.90;13.27;;;;;;;;;;8356526;28;20485;-92
2022/10/30 14:48:48;;;;;;;27.23;14.48;;;;;;;;;;8352061;28;20567;-87
2022/10/30 14:53:18;;;;;;;22.02;13.85;;;;;;;;;;8345790;28;20048;-87
2022/10/30 14:57:23;;;;;;;24.65;14.57;;;;;;;;;;8351778;28;20049;-84
2022/10/30 15:01:37;;;;;;;29.00;17.10;;;;;;;;;;8352414;28;20061;-86
2022/10/30 15:05:50;;;;;;;29.20;16.23;;;;;;;;;;8343711;28;20037;-88
2022/10/30 15:10:15;;;;;;;27.80;14.88;;;;;;;;;;8352476;28;20056;-87
2022/10/30 15:14:28;;;;;;;27.02;16.23;;;;;;;;;;8357021;28;20137;-87
2022/10/30 15:18:33;;;;;;;159.63;102.05;;;;;;;;;;8352384;28;20052;-87
2022/10/30 15:22:41;;;;;;;48.00;28.48;;;;;;;;;;8357899;28;20496;-88
2022/10/30 15:26:50;;;;;;;37.13;24.13;;;;;;;;;;8350667;28;20242;-85
2022/10/30 15:31:00;;;;;;;45.38;24.83;;;;;;;;;;8354658;28;20514;-91
2022/10/30 15:35:17;;;;;;;56.25;30.75;;;;;;;;;;8349724;28;20131;-83
2022/10/30 15:39:26;;;;;;;42.45;22.83;;;;;;;;;;8356594;28;20049;-84
2022/10/30 15:43:38;;;;;;;54.65;27.50;;;;;;;;;;8334282;28;20526;-84
2022/10/30 15:47:47;;;;;;;50.45;23.23;;;;;;;;;;8351635;28;20051;-85
2022/10/30 15:51:53;;;;;;;53.67;29.05;;;;;;;;;;8351042;28;20060;-87
2022/10/30 15:55:59;;;;;;;110.60;67.00;;;;;;;;;;8363966;28;20049;-89
2022/10/30 16:00:06;;;;;;;75.68;47.47;;;;;;;;;;8361135;28;20071;-89
2022/10/30 16:04:15;;;;;;;77.47;44.67;;;;;;;;;;8360345;28;20051;-91
2022/10/30 16:08:23;;;;;;;64.20;32.58;;;;;;;;;;8358380;28;20049;-91
2022/10/30 16:12:29;;;;;;;53.38;28.67;;;;;;;;;;8358024;28;20143;-87
2022/10/30 16:16:35;;;;;;;54.25;30.08;;;;;;;;;;8363730;28;20515;-90
2022/10/30 16:20:43;;;;;;;56.17;27.90;;;;;;;;;;8355261;28;20037;-91
2022/10/30 16:24:46;;;;;;;53.47;28.35;;;;;;;;;;8357730;28;20476;-84
2022/10/30 16:28:49;;;;;;;88.15;44.22;;;;;;;;;;8362729;28;20095;-90
2022/10/30 16:32:56;;;;;;;68.15;37.28;;;;;;;;;;8362452;28;20099;-85
2022/10/30 16:37:00;;;;;;;56.60;29.65;;;;;;;;;;8364522;28;20492;-88
2022/10/30 16:41:06;;;;;;;89.47;45.65;;;;;;;;;;8361118;28;20067;-89
2022/10/30 16:45:46;;;;;;;62.70;31.65;;;;;;;;;;8357866;28;20045;-89
2022/10/30 16:49:54;;;;;;;51.78;27.98;;;;;;;;;;8353342;28;20106;-88
2022/10/30 16:53:56;;;;;;;60.72;30.88;;;;;;;;;;8351867;28;20607;-87
2022/10/30 16:58:00;;;;;;;55.63;29.40;;;;;;;;;;8357748;28;20141;-93
2022/10/30 17:02:14;;;;;;;55.45;27.98;;;;;;;;;;8359550;28;20468;-84
2022/10/30 17:06:29;;;;;;;50.80;26.60;;;;;;;;;;8353036;28;20053;-88
2022/10/30 17:10:35;;;;;;;50.05;25.75;;;;;;;;;;8347383;28;20500;-87
2022/10/30 17:14:48;;;;;;;70.18;34.55;;;;;;;;;;8355684;28;20048;-90
2022/10/30 17:18:51;;;;;;;55.80;30.90;;;;;;;;;;8360158;28;20048;-91
2022/10/30 17:23:07;;;;;;;42.28;24.30;;;;;;;;;;8358801;28;20499;-93
2022/10/30 17:27:30;;;;;;;76.70;40.45;;;;;;;;;;8352911;28;20057;-87
2022/10/30 17:31:43;;;;;;;91.93;45.78;;;;;;;;;;8353627;28;20047;-93
2022/10/30 17:35:45;;;;;;;80.20;40.90;;;;;;;;;;8359443;28;20157;-88
2022/10/30 17:39:50;;;;;;;89.60;43.47;;;;;;;;;;8354973;28;20516;-87
2022/10/30 17:43:56;;;;;;;75.25;39.13;;;;;;;;;;8356888;28;20135;-90
2022/10/30 17:48:00;;;;;;;62.67;34.08;;;;;;;;;;8356097;28;20052;-93
2022/10/30 17:52:03;;;;;;;65.28;29.67;;;;;;;;;;8352941;28;20129;-85
2022/10/30 17:56:14;;;;;;;59.30;28.73;;;;;;;;;;8356676;28;20487;-86
2022/10/30 18:00:17;;;;;;;52.97;24.77;;;;;;;;;;8361121;28;20063;-87
2022/10/30 18:04:21;;;;;;;110.60;58.03;;;;;;;;;;8357063;28;20160;-90
2022/10/30 18:08:23;;;;;;;46.35;24.08;;;;;;;;;;8356609;28;20049;-92
2022/10/30 18:12:27;;;;;;;46.00;25.98;;;;;;;;;;8352770;28;20049;-91
2022/10/30 18:16:30;;;;;;;56.58;29.33;;;;;;;;;;8357302;28;20048;-90
2022/10/30 18:20:33;;;;;;;60.83;29.77;;;;;;;;;;8352678;28;20073;-89
2022/10/30 18:24:35;;;;;;;75.18;35.97;;;;;;;;;;8357909;28;20052;-91
2022/10/30 18:28:40;;;;;;;82.78;40.97;;;;;;;;;;8355961;28;20045;-88
2022/10/30 18:32:43;;;;;;;77.72;40.78;;;;;;;;;;8351886;28;20095;-88
2022/10/30 18:36:46;;;;;;;66.85;32.85;;;;;;;;;;8349077;28;20045;-88
2022/10/30 18:40:49;;;;;;;72.63;27.17;;;;;;;;;;8355262;28;20045;-92
2022/10/30 18:44:54;;;;;;;63.60;30.67;;;;;;;;;;8357627;28;20385;-88
2022/10/30 18:48:56;;;;;;;55.78;28.50;;;;;;;;;;8357357;28;20480;-92
2022/10/30 18:53:01;;;;;;;48.10;22.23;;;;;;;;;;8358264;28;20080;-92
2022/10/30 18:57:04;;;;;;;68.30;32.25;;;;;;;;;;8349560;28;20041;-91
2022/10/30 19:01:08;;;;;;;91.40;41.92;;;;;;;;;;8342745;28;20045;-91
2022/10/30 19:05:20;;;;;;;90.20;40.78;;;;;;;;;;8356832;28;20045;-91
2022/10/30 19:09:23;;;;;;;68.88;32.08;;;;;;;;;;8360009;28;20539;-87
2022/10/30 19:13:25;;;;;;;75.03;31.33;;;;;;;;;;8350541;28;20452;-90
2022/10/30 19:17:30;;;;;;;69.18;26.33;;;;;;;;;;8357167;28;20111;-86
2022/10/30 19:21:34;;;;;;;65.65;28.75;;;;;;;;;;8349621;28;20462;-85
2022/10/30 19:25:39;;;;;;;57.53;26.90;;;;;;;;;;8351143;28;20049;-92
2022/10/30 19:29:42;;;;;;;150.77;53.33;;;;;;;;;;8349961;28;20071;-89
2022/10/30 19:33:49;;;;;;;151.70;50.13;;;;;;;;;;8356570;28;20120;-87
2022/10/30 19:37:52;;;;;;;95.85;35.67;;;;;;;;;;8352125;28;20159;-90
2022/10/30 19:41:55;;;;;;;68.57;30.05;;;;;;;;;;8358411;28;20049;-95
2022/10/30 19:46:00;;;;;;;59.90;24.52;;;;;;;;;;8355274;28;20122;-93
2022/10/30 19:50:18;;;;;;;53.70;23.27;;;;;;;;;;8357525;28;20056;-92
2022/10/30 19:54:22;;;;;;;66.75;29.15;;;;;;;;;;8353199;28;20404;-86
2022/10/30 19:58:25;;;;;;;87.18;34.20;;;;;;;;;;8353021;28;20083;-87
2022/10/30 20:02:28;;;;;;;129.10;57.67;;;;;;;;;;8350104;28;20083;-89
2022/10/30 20:06:34;;;;;;;76.45;32.03;;;;;;;;;;8349470;28;20094;-84
2022/10/30 20:10:39;;;;;;;59.05;26.73;;;;;;;;;;8356893;28;20553;-89
2022/10/30 20:14:43;;;;;;;62.67;25.67;;;;;;;;;;8360250;28;20090;-84
2022/10/30 20:18:46;;;;;;;62.33;25.90;;;;;;;;;;8360165;28;20044;-84
2022/10/30 20:22:51;;;;;;;62.60;26.90;;;;;;;;;;8360541;28;20040;-87
2022/10/30 20:26:56;;;;;;;68.63;31.52;;;;;;;;;;8361214;28;20632;-89
2022/10/30 20:31:02;;;;;;;76.85;30.48;;;;;;;;;;8360945;28;20139;-86
2022/10/30 20:35:05;;;;;;;78.13;29.60;;;;;;;;;;8361732;28;20049;-83
2022/10/30 20:39:12;;;;;;;83.15;33.25;;;;;;;;;;8361482;28;20455;-87
2022/10/30 20:43:17;;;;;;;87.45;34.88;;;;;;;;;;8358958;28;20048;-89
2022/10/30 20:47:19;;;;;;;89.93;35.38;;;;;;;;;;8364845;28;20481;-89
2022/10/30 20:51:22;;;;;;;67.80;30.80;;;;;;;;;;8366930;28;20041;-89
2022/10/30 20:55:27;;;;;;;85.95;31.85;;;;;;;;;;8366820;28;20072;-87
2022/10/30 20:59:30;;;;;;;116.65;40.95;;;;;;;;;;8367457;28;20055;-85
2022/10/30 21:03:33;;;;;;;119.28;42.42;;;;;;;;;;8372466;28;20412;-87
2022/10/30 21:07:36;;;;;;;82.47;34.88;;;;;;;;;;8365889;28;20041;-88
2022/10/30 21:11:40;;;;;;;82.53;33.47;;;;;;;;;;8366428;28;20128;-83
2022/10/30 21:15:44;;;;;;;74.20;33.13;;;;;;;;;;8353631;28;20048;-90
2022/10/30 21:19:47;;;;;;;81.60;34.92;;;;;;;;;;8365499;28;20048;-89
2022/10/30 21:23:54;;;;;;;75.57;32.53;;;;;;;;;;8365842;28;20442;-88
2022/10/30 21:27:58;;;;;;;77.50;34.20;;;;;;;;;;8365602;28;20037;-88
2022/10/30 21:32:00;;;;;;;83.15;33.78;;;;;;;;;;8366063;28;20049;-90
2022/10/30 21:36:07;;;;;;;83.65;33.15;;;;;;;;;;8365583;28;20095;-89
2022/10/30 21:40:10;;;;;;;78.40;31.05;;;;;;;;;;8365260;28;20477;-84
2022/10/30 21:44:15;;;;;;;60.15;27.58;;;;;;;;;;8365213;28;20118;-87
2022/10/30 21:48:17;;;;;;;59.28;24.90;;;;;;;;;;8364765;28;20049;-87
2022/10/30 21:52:20;;;;;;;54.00;22.05;;;;;;;;;;8364700;28;20051;-86
2022/10/30 21:56:24;;;;;;;52.47;22.58;;;;;;;;;;8364859;28;20052;-84
2022/10/30 22:00:28;;;;;;;50.17;23.90;;;;;;;;;;8361910;28;20591;-87
2022/10/30 22:04:31;;;;;;;62.38;24.33;;;;;;;;;;8364653;28;20404;-88
2022/10/30 22:08:34;;;;;;;61.30;23.73;;;;;;;;;;8364685;28;20048;-85
2022/10/30 22:12:36;;;;;;;89.07;31.23;;;;;;;;;;8364758;28;20075;-90
2022/10/30 22:16:40;;;;;;;77.80;28.55;;;;;;;;;;8364018;28;20033;-84
2022/10/30 22:20:43;;;;;;;83.35;31.05;;;;;;;;;;8363963;28;20132;-84
2022/10/30 22:24:45;;;;;;;78.07;29.45;;;;;;;;;;8364035;28;20538;-88
2022/10/30 22:28:48;;;;;;;75.45;27.63;;;;;;;;;;8363688;28;20045;-88
2022/10/30 22:32:52;;;;;;;76.40;29.02;;;;;;;;;;8363554;28;20447;-90
2022/10/30 22:36:54;;;;;;;66.05;25.45;;;;;;;;;;8363227;28;20120;-86
2022/10/30 22:41:09;;;;;;;62.65;25.50;;;;;;;;;;8363405;28;20045;-91
2022/10/30 22:45:14;;;;;;;68.18;26.65;;;;;;;;;;8359613;28;20044;-85
2022/10/30 22:49:18;;;;;;;71.25;26.52;;;;;;;;;;8362562;28;20045;-89
2022/10/30 22:53:20;;;;;;;85.47;29.85;;;;;;;;;;8361365;28;20068;-86
2022/10/30 22:57:23;;;;;;;64.40;28.73;;;;;;;;;;8363551;28;20049;-85
2022/10/30 23:01:27;;;;;;;69.00;26.58;;;;;;;;;;8362714;28;20068;-86
2022/10/30 23:05:31;;;;;;;59.55;24.65;;;;;;;;;;8362999;28;20044;-86
2022/10/30 23:09:33;;;;;;;55.78;24.17;;;;;;;;;;8363065;28;20128;-84
2022/10/30 23:13:36;;;;;;;62.53;24.83;;;;;;;;;;8363025;28;20103;-91
2022/10/30 23:17:39;;;;;;;62.65;24.05;;;;;;;;;;8362046;28;20049;-83
2022/10/30 23:21:43;;;;;;;57.13;23.02;;;;;;;;;;8362516;28;20041;-85
2022/10/30 23:25:45;;;;;;;62.10;23.17;;;;;;;;;;8361976;28;20124;-86
2022/10/30 23:29:48;;;;;;;65.95;23.38;;;;;;;;;;8358001;28;20388;-88
2022/10/30 23:33:52;;;;;;;49.42;21.67;;;;;;;;;;8357338;28;20123;-88
2022/10/30 23:37:56;;;;;;;65.05;24.88;;;;;;;;;;8358206;28;20041;-86
2022/10/30 23:41:58;;;;;;;72.65;27.17;;;;;;;;;;8359091;28;20041;-91
2022/10/30 23:46:01;;;;;;;64.80;25.65;;;;;;;;;;8361710;28;20053;-90
2022/10/30 23:50:03;;;;;;;75.50;26.92;;;;;;;;;;8361544;28;20047;-89
2022/10/30 23:54:07;;;;;;;58.97;24.48;;;;;;;;;;8357314;28;20736;-84
2022/10/30 23:58:10;;;;;;;69.10;26.65;;;;;;;;;;8357807;28;20106;-84
